createdAt,value
2023-05-09T00:01:16.026Z,101066.59
2023-05-09T00:03:43.094Z,101037.25
2023-05-09T00:06:12.797Z,101044.66
2023-05-09T00:08:39.482Z,101053.19
2023-05-09T00:11:06.108Z,101054.72
2023-05-09T00:13:34.086Z,101033.38
2023-05-09T00:16:01.115Z,101047.66
2023-05-09T00:18:28.466Z,101041.97
2023-05-09T00:20:54.965Z,101037.75
2023-05-09T00:23:21.534Z,101035.78
2023-05-09T00:25:48.146Z,101034.06
2023-05-09T00:28:14.984Z,101028.34
2023-05-09T00:30:41.619Z,101002.78
2023-05-09T00:33:08.176Z,101029.38
2023-05-09T00:35:35.172Z,101004.16
2023-05-09T00:38:01.700Z,101015.56
2023-05-09T00:40:29.255Z,101004.50
2023-05-09T00:42:58.269Z,101008.53
2023-05-09T00:45:25.271Z,101001.31
2023-05-09T00:47:51.966Z,100998.31
2023-05-09T00:50:19.290Z,101003.53
2023-05-09T00:52:45.846Z,100999.63
2023-05-09T00:55:13.625Z,100961.59
2023-05-09T00:57:40.234Z,100994.88
2023-05-09T01:00:13.022Z,100985.25
2023-05-09T01:02:52.867Z,100984.88
2023-05-09T01:05:20.390Z,100979.09
2023-05-09T01:08:08.930Z,100968.19
2023-05-09T01:10:40.963Z,100949.84
2023-05-09T01:13:15.713Z,100968.03
2023-05-09T01:15:50.134Z,100960.44
2023-05-09T01:19:02.861Z,100965.34
2023-05-09T01:21:32.299Z,100964.78
2023-05-09T01:24:20.650Z,100963.31
2023-05-09T01:27:22.584Z,100950.16
2023-05-09T01:29:55.575Z,100936.38
2023-05-09T01:32:27.596Z,100926.28
2023-05-09T01:34:57.189Z,100955.03
2023-05-09T01:37:30.399Z,100949.38
2023-05-09T01:40:00.872Z,100939.28
2023-05-09T01:42:38.637Z,100939.78
2023-05-09T01:45:06.143Z,100933.91
2023-05-09T01:47:32.920Z,100927.84
2023-05-09T01:50:01.898Z,100932.34
2023-05-09T01:52:29.517Z,100898.88
2023-05-09T01:54:56.458Z,100927.16
2023-05-09T01:57:23.410Z,100902.94
2023-05-09T01:59:50.889Z,100898.25
2023-05-09T02:02:17.472Z,100916.19
2023-05-09T02:04:44.839Z,100919.72
2023-05-09T02:07:12.429Z,100900.56
2023-05-09T02:09:38.945Z,100928.81
2023-05-09T02:12:06.846Z,100888.34
2023-05-09T02:14:33.366Z,100924.53
2023-05-09T02:17:06.372Z,100905.97
2023-05-09T02:19:35.300Z,100919.28
2023-05-09T02:22:04.667Z,100906.53
2023-05-09T02:24:33.232Z,100917.47
2023-05-09T02:27:02.608Z,100914.22
2023-05-09T02:29:39.770Z,100863.56
2023-05-09T02:32:11.769Z,100913.91
2023-05-09T02:34:38.668Z,100898.97
2023-05-09T02:37:06.508Z,100902.50
2023-05-09T02:39:33.051Z,100902.88
2023-05-09T02:42:10.789Z,100908.84
2023-05-09T02:44:38.648Z,100876.66
2023-05-09T02:47:06.645Z,100866.41
2023-05-09T02:49:33.710Z,100895.78
2023-05-09T02:52:01.535Z,100904.25
2023-05-09T02:54:28.401Z,100894.09
2023-05-09T02:56:54.937Z,100870.28
2023-05-09T02:59:21.383Z,100885.88
2023-05-09T03:01:47.906Z,100901.19
2023-05-09T03:04:14.384Z,100896.81
2023-05-09T03:06:41.004Z,100904.84
2023-05-09T03:09:07.586Z,100897.97
2023-05-09T03:11:36.585Z,100896.81
2023-05-09T03:14:04.010Z,100900.84
2023-05-09T03:16:31.003Z,100883.16
2023-05-09T03:18:57.646Z,100867.56
2023-05-09T03:21:24.251Z,100886.72
2023-05-09T03:23:51.126Z,100878.28
2023-05-09T03:26:17.717Z,100847.28
2023-05-09T03:28:46.378Z,100850.50
2023-05-09T03:31:12.922Z,100890.91
2023-05-09T03:33:39.749Z,100870.63
2023-05-09T03:36:06.431Z,100849.25
2023-05-09T03:38:32.941Z,100853.16
2023-05-09T03:40:59.574Z,100881.75
2023-05-09T03:43:26.459Z,100835.50
2023-05-09T03:45:52.928Z,100873.97
2023-05-09T03:48:20.194Z,100869.06
2023-05-09T03:50:46.709Z,100850.06
2023-05-09T03:53:13.501Z,100820.66
2023-05-09T03:55:40.041Z,100868.94
2023-05-09T03:58:06.570Z,100849.66
2023-05-09T04:00:33.110Z,100828.66
2023-05-09T04:02:59.683Z,100866.44
2023-05-09T04:05:27.090Z,100827.13
2023-05-09T04:07:53.868Z,100845.38
2023-05-09T04:10:20.490Z,100859.88
2023-05-09T04:12:47.251Z,100863.44
2023-05-09T04:15:14.017Z,100824.81
2023-05-09T04:17:40.774Z,100853.88
2023-05-09T04:20:08.286Z,100826.47
2023-05-09T04:22:34.762Z,100858.75
2023-05-09T04:25:02.012Z,100843.13
2023-05-09T04:27:28.846Z,100853.03
2023-05-09T04:29:55.655Z,100856.09
2023-05-09T04:32:23.228Z,100850.50
2023-05-09T04:34:49.974Z,100840.38
2023-05-09T04:37:17.081Z,100832.88
2023-05-09T04:39:44.032Z,100857.16
2023-05-09T04:42:10.760Z,100857.44
2023-05-09T04:44:37.221Z,100844.44
2023-05-09T04:47:03.740Z,100845.28
2023-05-09T04:49:30.361Z,100823.78
2023-05-09T04:51:56.848Z,100843.00
2023-05-09T04:54:23.370Z,100841.44
2023-05-09T04:56:50.772Z,100819.28
2023-05-09T04:59:17.317Z,100831.06
2023-05-09T05:01:44.144Z,100816.47
2023-05-09T05:04:10.685Z,100825.50
2023-05-09T05:06:37.171Z,100833.13
2023-05-09T05:09:03.890Z,100800.38
2023-05-09T05:11:30.915Z,100816.16
2023-05-09T05:13:57.394Z,100818.06
2023-05-09T05:16:23.875Z,100823.75
2023-05-09T05:18:50.751Z,100803.34
2023-05-09T05:21:17.198Z,100816.78
2023-05-09T05:23:43.828Z,100789.22
2023-05-09T05:26:10.592Z,100810.22
2023-05-09T05:28:37.060Z,100807.97
2023-05-09T05:31:03.536Z,100801.22
2023-05-09T05:33:30.026Z,100798.81
2023-05-09T05:35:56.529Z,100805.88
2023-05-09T05:38:23.097Z,100774.00
2023-05-09T05:40:49.590Z,100806.56
2023-05-09T05:43:16.052Z,100784.56
2023-05-09T05:45:42.578Z,100779.56
2023-05-09T05:48:09.129Z,100790.81
2023-05-09T05:50:36.640Z,100781.56
2023-05-09T05:53:03.305Z,100778.59
2023-05-09T05:55:29.768Z,100780.19
2023-05-09T05:57:56.518Z,100784.13
2023-05-09T06:00:22.981Z,100787.28
2023-05-09T06:02:49.744Z,100770.75
2023-05-09T06:05:16.986Z,100779.25
2023-05-09T06:07:44.281Z,100770.28
2023-05-09T06:10:11.082Z,100770.16
2023-05-09T06:12:37.682Z,100735.09
2023-05-09T06:15:07.409Z,100729.09
2023-05-09T06:17:34.701Z,100774.91
2023-05-09T06:20:01.334Z,100760.25
2023-05-09T06:22:27.843Z,100768.47
2023-05-09T06:24:54.338Z,100767.13
2023-05-09T06:27:20.905Z,100764.69
2023-05-09T06:29:47.497Z,100759.13
2023-05-09T06:32:13.994Z,100744.13
2023-05-09T06:34:41.862Z,100759.66
2023-05-09T06:37:08.382Z,100758.13
2023-05-09T06:39:34.844Z,100750.78
2023-05-09T06:42:01.338Z,100721.22
2023-05-09T06:44:28.166Z,100735.88
2023-05-09T06:46:55.438Z,100744.13
2023-05-09T06:49:22.517Z,100719.66
2023-05-09T06:51:49.038Z,100737.91
2023-05-09T06:54:17.152Z,100734.88
2023-05-09T06:56:43.652Z,100709.81
2023-05-09T06:59:13.256Z,100723.72
2023-05-09T07:01:40.916Z,100707.78
2023-05-09T07:04:07.777Z,100705.38
2023-05-09T07:06:34.323Z,100707.16
2023-05-09T07:09:00.858Z,100706.72
2023-05-09T07:11:27.383Z,100690.56
2023-05-09T07:13:53.868Z,100708.16
2023-05-09T07:16:22.876Z,100707.69
2023-05-09T07:18:49.669Z,100695.47
2023-05-09T07:21:16.243Z,100698.41
2023-05-09T07:23:42.782Z,100687.28
2023-05-09T07:26:09.282Z,100679.97
2023-05-09T07:28:35.732Z,100694.84
2023-05-09T07:31:02.211Z,100675.34
2023-05-09T07:33:28.732Z,100699.31
2023-05-09T07:35:55.581Z,100687.75
2023-05-09T07:38:22.245Z,100695.84
2023-05-09T07:40:48.742Z,100683.25
2023-05-09T07:43:15.591Z,100685.91
2023-05-09T07:45:42.114Z,100670.00
2023-05-09T07:48:09.394Z,100669.72
2023-05-09T07:50:35.937Z,100647.16
2023-05-09T07:53:02.428Z,100657.78
2023-05-09T07:55:29.189Z,100658.28
2023-05-09T07:57:55.625Z,100657.97
2023-05-09T08:00:23.930Z,100654.81
2023-05-09T08:02:51.545Z,100661.84
2023-05-09T08:05:18.351Z,100648.75
2023-05-09T08:07:45.338Z,100645.59
2023-05-09T08:10:12.359Z,100642.50
2023-05-09T08:12:39.268Z,100643.97
2023-05-09T08:15:06.373Z,100630.38
2023-05-09T08:17:33.088Z,100621.44
2023-05-09T08:19:59.544Z,100635.84
2023-05-09T08:22:26.406Z,100617.97
2023-05-09T08:24:52.868Z,100631.28
2023-05-09T08:27:19.713Z,100607.50
2023-05-09T08:29:46.209Z,100620.34
2023-05-09T08:32:13.009Z,100609.94
2023-05-09T08:34:39.573Z,100616.91
2023-05-09T08:37:06.041Z,100585.66
2023-05-09T08:39:34.939Z,100604.84
2023-05-09T08:42:02.351Z,100614.63
2023-05-09T08:44:30.463Z,100610.78
2023-05-09T08:47:00.137Z,100606.91
2023-05-09T08:49:26.810Z,100610.03
2023-05-09T08:51:53.669Z,100604.94
2023-05-09T08:54:22.914Z,100600.75
2023-05-09T08:56:50.701Z,100583.66
2023-05-09T08:59:18.562Z,100581.34
2023-05-09T09:01:45.565Z,100599.72
2023-05-09T09:04:12.258Z,100591.44
2023-05-09T09:06:39.612Z,100583.81
2023-05-09T09:09:08.538Z,100590.84
2023-05-09T09:11:36.340Z,100593.06
2023-05-09T09:14:12.804Z,100588.22
2023-05-09T09:16:41.611Z,100591.63
2023-05-09T09:19:12.494Z,100562.13
2023-05-09T09:21:42.465Z,100586.81
2023-05-09T09:24:14.221Z,100581.53
2023-05-09T09:26:46.779Z,100583.94
2023-05-09T09:32:02.069Z,100563.31
2023-05-09T09:34:28.654Z,100553.00
2023-05-09T09:36:55.271Z,100555.16
2023-05-09T09:39:22.102Z,100563.28
2023-05-09T09:41:49.031Z,100559.78
2023-05-09T09:44:22.785Z,100554.66
2023-05-09T09:46:50.674Z,100549.31
2023-05-09T09:49:22.201Z,100544.00
2023-05-09T09:51:53.992Z,100547.41
2023-05-09T09:54:20.810Z,100526.59
2023-05-09T09:56:49.670Z,100516.81
2023-05-09T09:59:18.849Z,100539.44
2023-05-09T10:02:05.121Z,100538.38
2023-05-09T10:04:35.487Z,100531.25
2023-05-09T10:07:04.996Z,100527.34
2023-05-09T10:09:32.958Z,100533.19
2023-05-09T10:12:09.536Z,100529.16
2023-05-09T10:14:36.848Z,100516.88
2023-05-09T10:17:05.077Z,100507.97
2023-05-09T10:19:32.440Z,100500.88
2023-05-09T10:22:04.170Z,100507.03
2023-05-09T10:24:34.754Z,100506.25
2023-05-09T10:27:06.973Z,100511.66
2023-05-09T10:29:36.735Z,100508.38
2023-05-09T10:32:18.202Z,100493.53
2023-05-09T10:34:48.117Z,100491.91
2023-05-09T10:37:16.110Z,100477.56
2023-05-09T10:39:42.997Z,100445.28
2023-05-09T10:42:09.807Z,100468.03
2023-05-09T10:44:37.398Z,100466.78
2023-05-09T10:47:04.244Z,100466.41
2023-05-09T10:49:31.012Z,100458.53
2023-05-09T10:51:57.481Z,100445.47
2023-05-09T10:54:33.285Z,100448.75
2023-05-09T10:57:00.821Z,100444.56
2023-05-09T10:59:57.749Z,100447.59
2023-05-09T11:02:34.960Z,100448.25
2023-05-09T11:05:15.986Z,100448.56
2023-05-09T11:07:43.378Z,100439.69
2023-05-09T11:10:20.073Z,100437.88
2023-05-09T11:12:58.149Z,100429.19
2023-05-09T11:15:26.551Z,100439.91
2023-05-09T11:18:07.442Z,100433.72
2023-05-09T11:20:37.918Z,100428.56
2023-05-09T11:23:05.984Z,100429.09
2023-05-09T11:25:33.002Z,100420.72
2023-05-09T11:28:01.788Z,100413.22
2023-05-09T11:30:42.523Z,100411.28
2023-05-09T11:33:31.197Z,100409.69
2023-05-09T11:36:19.904Z,100386.09
2023-05-09T11:38:47.551Z,100393.16
2023-05-09T11:41:15.440Z,100390.16
2023-05-09T11:43:42.911Z,100388.97
2023-05-09T11:46:09.473Z,100382.34
2023-05-09T11:48:39.817Z,100373.25
2023-05-09T11:51:07.469Z,100363.19
2023-05-09T11:53:34.278Z,100362.59
2023-05-09T11:56:04.794Z,100349.03
2023-05-09T11:58:31.648Z,100341.69
2023-05-09T12:00:58.465Z,100344.06
2023-05-09T12:03:25.224Z,100340.97
2023-05-09T12:05:51.850Z,100345.63
2023-05-09T12:08:18.556Z,100341.13
2023-05-09T12:10:45.020Z,100326.19
2023-05-09T12:13:12.056Z,100328.91
2023-05-09T12:15:38.741Z,100318.41
2023-05-09T12:18:07.827Z,100302.03
2023-05-09T12:21:00.885Z,100313.69
2023-05-09T12:23:27.350Z,100312.09
2023-05-09T12:25:55.610Z,100321.88
2023-05-09T12:28:25.855Z,100310.09
2023-05-09T12:30:53.338Z,100312.16
2023-05-09T12:33:21.181Z,100312.63
2023-05-09T12:35:48.565Z,100285.66
2023-05-09T12:38:22.477Z,100307.25
2023-05-09T12:40:50.056Z,100297.28
2023-05-09T12:43:17.444Z,100282.06
2023-05-09T12:45:44.118Z,100316.81
2023-05-09T12:48:11.774Z,100296.53
2023-05-09T12:50:38.436Z,100289.53
2023-05-09T12:53:05.213Z,100305.16
2023-05-09T12:55:39.808Z,100291.88
2023-05-09T12:58:06.909Z,100273.47
2023-05-09T13:00:46.014Z,100287.09
2023-05-09T13:03:25.074Z,100285.06
2023-05-09T13:05:58.831Z,100262.19
2023-05-09T13:08:26.692Z,100277.94
2023-05-09T13:11:00.776Z,100272.56
2023-05-09T13:13:34.714Z,100268.09
2023-05-09T13:16:03.730Z,100263.56
2023-05-09T13:18:30.396Z,100236.03
2023-05-09T13:20:57.035Z,100257.75
2023-05-09T13:23:23.543Z,100260.38
2023-05-09T13:25:50.023Z,100252.03
2023-05-09T13:28:16.556Z,100223.13
2023-05-09T13:30:43.089Z,100242.13
2023-05-09T13:33:24.540Z,100235.47
2023-05-09T13:35:51.703Z,100237.69
2023-05-09T13:38:18.153Z,100233.59
2023-05-09T13:40:44.628Z,100195.38
2023-05-09T13:43:11.230Z,100231.50
2023-05-09T13:45:37.656Z,100227.25
2023-05-09T13:48:04.598Z,100231.28
2023-05-09T13:50:31.141Z,100202.03
2023-05-09T13:52:58.142Z,100215.75
2023-05-09T13:55:26.364Z,100238.72
2023-05-09T13:57:52.851Z,100252.63
2023-05-09T14:00:21.212Z,100248.13
2023-05-09T14:02:48.371Z,100248.16
2023-05-09T14:05:15.015Z,100239.59
2023-05-09T14:07:42.727Z,100235.66
2023-05-09T14:10:11.732Z,100238.34
2023-05-09T14:12:39.953Z,100224.03
2023-05-09T14:15:07.781Z,100244.34
2023-05-09T14:17:34.338Z,100240.38
2023-05-09T14:20:00.893Z,100233.78
2023-05-09T14:22:28.190Z,100227.78
2023-05-09T14:24:56.522Z,100223.16
2023-05-09T14:27:23.174Z,100205.38
2023-05-09T14:29:50.144Z,100211.72
2023-05-09T14:32:17.326Z,100197.44
2023-05-09T14:34:44.448Z,100191.06
2023-05-09T14:37:14.206Z,100183.91
2023-05-09T14:39:42.502Z,100176.97
2023-05-09T14:42:11.383Z,100217.41
2023-05-09T14:44:38.671Z,100216.47
2023-05-09T14:47:05.771Z,100226.19
2023-05-09T14:49:32.705Z,100212.16
2023-05-09T14:51:59.415Z,100199.91
2023-05-09T14:54:25.958Z,100213.47
2023-05-09T14:56:52.663Z,100206.41
2023-05-09T14:59:19.152Z,100215.84
2023-05-09T15:01:46.220Z,100199.00
2023-05-09T15:04:12.763Z,100198.03
2023-05-09T15:06:39.683Z,100197.41
2023-05-09T15:09:06.236Z,100196.47
2023-05-09T15:11:43.744Z,100187.91
2023-05-09T15:14:14.688Z,100168.72
2023-05-09T15:16:41.391Z,100175.38
2023-05-09T15:19:08.313Z,100169.69
2023-05-09T15:21:35.353Z,100144.34
2023-05-09T15:24:02.465Z,100158.69
2023-05-09T15:26:29.996Z,100140.16
2023-05-09T15:28:56.554Z,100147.75
2023-05-09T15:31:24.905Z,100153.09
2023-05-09T15:33:51.687Z,100137.19
2023-05-09T15:36:18.404Z,100136.78
2023-05-09T15:38:48.324Z,100133.81
2023-05-09T15:41:15.409Z,100134.91
2023-05-09T15:43:42.097Z,100107.16
2023-05-09T15:46:08.865Z,100101.63
2023-05-09T15:48:35.383Z,100116.56
2023-05-09T15:51:03.919Z,100120.25
2023-05-09T15:53:30.454Z,100079.50
2023-05-09T15:55:57.038Z,100106.22
2023-05-09T15:58:23.604Z,100086.69
2023-05-09T16:00:50.193Z,100121.00
2023-05-09T16:03:16.846Z,100111.31
2023-05-09T16:05:43.807Z,100078.53
2023-05-09T16:08:10.616Z,100103.81
2023-05-09T16:10:37.048Z,100108.44
2023-05-09T16:13:03.951Z,100086.50
2023-05-09T16:15:30.509Z,100082.97
2023-05-09T16:17:57.020Z,100106.25
2023-05-09T16:20:23.577Z,100108.84
2023-05-09T16:22:50.182Z,100105.53
2023-05-09T16:25:16.913Z,100104.13
2023-05-09T16:27:43.493Z,100061.44
2023-05-09T16:30:10.481Z,100103.94
2023-05-09T16:32:37.101Z,100105.16
2023-05-09T16:35:04.174Z,100097.91
2023-05-09T16:37:31.060Z,100103.84
2023-05-09T16:39:59.405Z,100116.34
2023-05-09T16:42:26.133Z,100098.88
2023-05-09T16:44:52.642Z,100103.03
2023-05-09T16:47:19.162Z,100109.34
2023-05-09T16:49:46.021Z,100098.88
2023-05-09T16:52:12.753Z,100105.63
2023-05-09T16:54:39.567Z,100105.44
2023-05-09T16:57:06.112Z,100112.22
2023-05-09T16:59:32.851Z,100078.09
2023-05-09T17:01:59.952Z,100109.81
2023-05-09T17:04:27.414Z,100114.69
2023-05-09T17:06:54.019Z,100090.38
2023-05-09T17:09:20.634Z,100083.59
2023-05-09T17:11:48.213Z,100104.56
2023-05-09T17:14:14.776Z,100130.63
2023-05-09T17:16:41.288Z,100106.31
2023-05-09T17:19:07.790Z,100132.88
2023-05-09T17:21:34.860Z,100097.69
2023-05-09T17:24:02.143Z,100115.78
2023-05-09T17:26:29.647Z,100101.47
2023-05-09T17:28:56.268Z,100127.91
2023-05-09T17:31:22.875Z,100102.66
2023-05-09T17:33:49.519Z,100127.59
2023-05-09T17:36:16.258Z,100088.13
2023-05-09T17:38:43.157Z,100122.81
2023-05-09T17:41:09.857Z,100097.13
2023-05-09T17:43:36.369Z,100104.44
2023-05-09T17:46:03.757Z,100125.56
2023-05-09T17:48:30.313Z,100109.59
2023-05-09T17:50:56.894Z,100093.78
2023-05-09T17:53:23.603Z,100121.38
2023-05-09T17:55:50.518Z,100121.28
2023-05-09T17:58:16.998Z,100114.47
2023-05-09T18:00:44.623Z,100114.25
2023-05-09T18:03:11.414Z,100116.31
2023-05-09T18:05:38.216Z,100103.34
2023-05-09T18:08:05.610Z,100094.53
2023-05-09T18:10:32.372Z,100106.88
2023-05-09T18:12:59.050Z,100104.88
2023-05-09T18:15:26.321Z,100108.28
2023-05-09T18:17:54.694Z,100101.72
2023-05-09T18:20:21.487Z,100092.25
2023-05-09T18:22:48.063Z,100100.75
2023-05-09T18:25:14.582Z,100092.41
2023-05-09T18:27:41.090Z,100094.13
2023-05-09T18:30:08.166Z,100066.81
2023-05-09T18:32:34.641Z,100098.63
2023-05-09T18:35:01.149Z,100095.13
2023-05-09T18:37:27.813Z,100000.03
2023-05-09T18:39:54.354Z,100084.34
2023-05-09T18:42:20.849Z,100062.59
2023-05-09T18:44:47.332Z,100089.69
2023-05-09T18:47:13.999Z,100058.94
2023-05-09T18:49:41.205Z,100091.34
2023-05-09T18:52:09.171Z,100093.81
2023-05-09T18:54:36.536Z,100059.50
2023-05-09T18:57:03.314Z,100084.19
2023-05-09T18:59:29.816Z,100076.91
2023-05-09T19:01:56.249Z,100085.00
2023-05-09T19:04:22.926Z,100054.59
2023-05-09T19:06:49.531Z,100079.22
2023-05-09T19:09:16.615Z,100082.97
2023-05-09T19:11:43.325Z,100058.13
2023-05-09T19:14:09.993Z,100072.56
2023-05-09T19:16:36.668Z,100076.91
2023-05-09T19:19:03.340Z,100079.78
2023-05-09T19:21:30.202Z,100075.91
2023-05-09T19:23:56.693Z,100084.91
2023-05-09T19:26:23.351Z,100057.03
2023-05-09T19:28:49.914Z,100083.88
2023-05-09T19:31:18.938Z,100075.91
2023-05-09T19:33:47.476Z,100068.78
2023-05-09T19:36:14.262Z,100068.19
2023-05-09T19:38:41.222Z,100046.34
2023-05-09T19:41:07.896Z,100070.56
2023-05-09T19:43:34.971Z,100076.09
2023-05-09T19:46:01.572Z,100084.06
2023-05-09T19:48:28.115Z,100076.53
2023-05-09T19:50:58.470Z,100062.41
2023-05-09T19:53:25.284Z,100059.34
2023-05-09T19:55:52.200Z,100078.78
2023-05-09T19:58:18.734Z,100077.31
2023-05-09T20:00:45.871Z,100050.34
2023-05-09T20:03:12.616Z,100050.06
2023-05-09T20:05:39.516Z,100069.28
2023-05-09T20:08:06.191Z,100068.50
2023-05-09T20:10:32.972Z,100068.88
2023-05-09T20:13:00.890Z,100057.75
2023-05-09T20:15:27.836Z,100039.94
2023-05-09T20:17:54.435Z,100051.91
2023-05-09T20:20:21.513Z,100022.09
2023-05-09T20:22:48.037Z,100041.63
2023-05-09T20:25:14.753Z,100043.13
2023-05-09T20:27:41.449Z,100044.22
2023-05-09T20:30:08.396Z,100039.59
2023-05-09T20:32:35.130Z,100041.22
2023-05-09T20:35:02.007Z,100037.41
2023-05-09T20:37:28.493Z,100020.19
2023-05-09T20:39:54.981Z,100037.03
2023-05-09T20:42:23.227Z,100037.44
2023-05-09T20:44:51.453Z,99997.97
2023-05-09T20:47:17.923Z,100022.47
2023-05-09T20:49:44.397Z,99990.19
2023-05-09T20:52:11.022Z,100021.66
2023-05-09T20:54:37.661Z,100024.19
2023-05-09T20:57:04.177Z,99993.84
2023-05-09T20:59:31.007Z,100026.63
2023-05-09T21:01:57.645Z,100029.22
2023-05-09T21:04:24.276Z,100003.41
2023-05-09T21:06:50.823Z,100006.91
2023-05-09T21:09:17.334Z,100003.13
2023-05-09T21:11:43.994Z,99983.28
2023-05-09T21:14:10.916Z,100014.41
2023-05-09T21:16:37.717Z,100013.88
2023-05-09T21:19:06.043Z,100012.56
2023-05-09T21:21:35.531Z,99983.59
2023-05-09T21:24:04.233Z,99992.97
2023-05-09T21:26:30.856Z,99983.00
2023-05-09T21:28:57.550Z,99987.03
2023-05-09T21:31:24.098Z,100004.03
2023-05-09T21:33:51.976Z,100003.50
2023-05-09T21:36:18.491Z,99978.75
2023-05-09T21:38:45.443Z,100000.72
2023-05-09T21:41:11.933Z,100013.50
2023-05-09T21:43:38.702Z,100003.41
2023-05-09T21:46:05.984Z,99988.97
2023-05-09T21:48:32.815Z,100005.31
2023-05-09T21:51:03.380Z,100008.69
2023-05-09T21:53:29.946Z,99982.03
2023-05-09T21:55:56.479Z,99962.38
2023-05-09T21:58:22.950Z,99981.25
2023-05-09T22:00:49.576Z,99970.38
2023-05-09T22:03:16.213Z,99997.59
2023-05-09T22:05:42.735Z,99995.50
2023-05-09T22:08:09.266Z,99998.56
2023-05-09T22:10:37.408Z,99994.75
2023-05-09T22:13:03.925Z,100000.97
2023-05-09T22:15:30.396Z,99996.00
2023-05-09T22:17:56.871Z,99991.84
2023-05-09T22:20:23.722Z,99993.59
2023-05-09T22:22:50.377Z,99996.41
2023-05-09T22:25:17.612Z,99992.06
2023-05-09T22:27:44.117Z,99999.22
2023-05-09T22:30:12.346Z,100002.97
2023-05-09T22:32:39.608Z,99994.69
2023-05-09T22:35:06.880Z,99988.88
2023-05-09T22:37:33.425Z,100008.03
2023-05-09T22:40:01.508Z,100003.91
2023-05-09T22:42:29.373Z,99970.63
2023-05-09T22:44:56.066Z,99982.03
2023-05-09T22:47:22.932Z,99993.34
2023-05-09T22:49:49.962Z,99979.50
2023-05-09T22:52:17.140Z,99971.84
2023-05-09T22:54:43.726Z,99976.03
2023-05-09T22:57:10.700Z,99974.22
2023-05-09T22:59:37.191Z,99983.84
2023-05-09T23:02:04.661Z,99994.22
2023-05-09T23:04:31.156Z,99959.63
2023-05-09T23:06:57.737Z,100000.69
2023-05-09T23:09:24.363Z,99999.56
2023-05-09T23:11:51.515Z,100001.69
2023-05-09T23:14:18.331Z,99995.44
2023-05-09T23:16:44.770Z,100001.41
2023-05-09T23:19:11.562Z,99988.69
2023-05-09T23:21:38.265Z,99988.84
2023-05-09T23:24:04.896Z,99995.09
2023-05-09T23:26:31.332Z,99988.81
2023-05-09T23:28:57.891Z,99963.38
2023-05-09T23:31:24.411Z,99976.78
2023-05-09T23:33:50.908Z,99990.81
2023-05-09T23:36:17.594Z,99996.63
2023-05-09T23:38:44.158Z,99987.00
2023-05-09T23:41:10.801Z,99991.03
2023-05-09T23:43:37.695Z,99973.56
2023-05-09T23:46:04.346Z,99993.19
2023-05-09T23:48:30.933Z,99989.16
2023-05-09T23:50:57.827Z,99984.13
2023-05-09T23:53:24.577Z,99994.66
2023-05-09T23:55:51.430Z,99989.69
2023-05-09T23:58:17.990Z,99988.16
